createdAt,value
2023-06-25T00:01:08.107Z,18.32
2023-06-25T00:03:52.860Z,18.35
2023-06-25T00:06:21.087Z,18.35
2023-06-25T00:08:50.060Z,18.30
2023-06-25T00:11:18.083Z,18.25
2023-06-25T00:13:46.376Z,18.23
2023-06-25T00:16:15.494Z,18.22
2023-06-25T00:18:43.461Z,18.20
2023-06-25T00:21:12.727Z,18.19
2023-06-25T00:23:41.024Z,18.16
2023-06-25T00:26:10.205Z,18.18
2023-06-25T00:28:38.748Z,18.17
2023-06-25T00:31:07.341Z,18.16
2023-06-25T00:33:35.499Z,18.16
2023-06-25T00:36:08.461Z,18.16
2023-06-25T00:38:41.995Z,18.16
2023-06-25T00:41:11.516Z,18.18
2023-06-25T00:43:43.561Z,18.19
2023-06-25T00:46:16.858Z,18.19
2023-06-25T00:48:49.207Z,18.19
2023-06-25T00:51:18.920Z,18.22
2023-06-25T00:53:47.743Z,18.23
2023-06-25T00:56:16.744Z,18.24
2023-06-25T00:58:45.532Z,18.25
2023-06-25T01:01:21.923Z,18.25
2023-06-25T01:03:56.689Z,18.24
2023-06-25T01:06:31.036Z,18.23
2023-06-25T01:09:01.399Z,18.22
2023-06-25T01:11:30.745Z,18.21
2023-06-25T01:13:58.810Z,18.19
2023-06-25T01:16:26.949Z,18.17
2023-06-25T01:19:04.772Z,18.16
2023-06-25T01:21:37.114Z,18.13
2023-06-25T01:24:07.065Z,18.11
2023-06-25T01:26:37.976Z,18.07
2023-06-25T01:29:06.609Z,18.03
2023-06-25T01:31:35.467Z,18.00
2023-06-25T01:34:03.934Z,17.96
2023-06-25T01:36:32.632Z,17.93
2023-06-25T01:39:01.030Z,17.93
2023-06-25T01:41:29.273Z,17.93
2023-06-25T01:43:58.722Z,17.93
2023-06-25T01:46:26.901Z,17.96
2023-06-25T01:48:55.853Z,17.94
2023-06-25T01:51:24.514Z,17.98
2023-06-25T01:53:52.596Z,18.05
2023-06-25T01:56:20.603Z,18.06
2023-06-25T01:58:48.681Z,18.08
2023-06-25T02:01:16.900Z,18.07
2023-06-25T02:03:45.111Z,18.06
2023-06-25T02:06:14.148Z,18.07
2023-06-25T02:08:42.837Z,18.06
2023-06-25T02:11:11.656Z,18.07
2023-06-25T02:13:40.074Z,18.07
2023-06-25T02:16:08.217Z,18.06
2023-06-25T02:18:37.940Z,18.13
2023-06-25T02:21:06.580Z,18.18
2023-06-25T02:23:34.597Z,18.22
2023-06-25T02:26:03.224Z,18.27
2023-06-25T02:28:31.403Z,18.27
2023-06-25T02:30:59.517Z,18.26
2023-06-25T02:33:27.949Z,18.26
2023-06-25T02:35:57.012Z,18.25
2023-06-25T02:38:25.112Z,18.24
2023-06-25T02:40:53.443Z,18.26
2023-06-25T02:43:21.560Z,18.30
2023-06-25T02:45:50.205Z,18.31
2023-06-25T02:48:18.718Z,18.32
2023-06-25T02:50:47.111Z,18.34
2023-06-25T02:53:15.492Z,18.33
2023-06-25T02:55:43.533Z,18.34
2023-06-25T02:58:11.647Z,18.37
2023-06-25T03:00:40.170Z,18.38
2023-06-25T03:03:08.527Z,18.40
2023-06-25T03:05:39.789Z,18.42
2023-06-25T03:08:08.275Z,18.44
2023-06-25T03:10:39.205Z,18.45
2023-06-25T03:13:08.248Z,18.44
2023-06-25T03:15:36.924Z,18.45
2023-06-25T03:18:05.901Z,18.44
2023-06-25T03:20:34.057Z,18.42
2023-06-25T03:23:02.668Z,18.46
2023-06-25T03:25:30.762Z,18.49
2023-06-25T03:28:21.060Z,18.53
2023-06-25T03:30:49.821Z,18.56
2023-06-25T03:33:19.342Z,18.59
2023-06-25T03:35:47.882Z,18.62
2023-06-25T03:38:16.006Z,18.64
2023-06-25T03:40:44.256Z,18.63
2023-06-25T03:43:12.918Z,18.63
2023-06-25T03:45:41.494Z,18.63
2023-06-25T03:48:10.238Z,18.63
2023-06-25T03:50:38.644Z,18.60
2023-06-25T03:53:06.716Z,18.63
2023-06-25T03:55:36.223Z,18.67
2023-06-25T03:58:04.562Z,18.71
2023-06-25T04:00:32.579Z,18.76
2023-06-25T04:03:01.341Z,18.79
2023-06-25T04:05:31.350Z,18.84
2023-06-25T04:07:59.481Z,18.88
2023-06-25T04:10:27.961Z,18.88
2023-06-25T04:12:56.250Z,18.92
2023-06-25T04:15:24.722Z,18.96
2023-06-25T04:17:53.204Z,19.02
2023-06-25T04:20:21.318Z,19.05
2023-06-25T04:22:51.306Z,19.11
2023-06-25T04:25:19.456Z,19.13
2023-06-25T04:27:49.076Z,19.21
2023-06-25T04:30:17.847Z,19.24
2023-06-25T04:32:45.945Z,19.24
2023-06-25T04:35:15.559Z,19.27
2023-06-25T04:37:44.526Z,19.34
2023-06-25T04:40:13.950Z,19.35
2023-06-25T04:42:42.128Z,19.39
2023-06-25T04:45:10.543Z,19.31
2023-06-25T04:47:38.856Z,19.31
2023-06-25T04:50:08.487Z,19.37
2023-06-25T04:52:36.768Z,19.49
2023-06-25T04:55:05.296Z,19.64
2023-06-25T04:57:35.587Z,19.81
2023-06-25T05:00:05.428Z,19.86
2023-06-25T05:02:33.717Z,19.94
2023-06-25T05:05:01.902Z,20.02
2023-06-25T05:07:32.380Z,20.20
2023-06-25T05:10:00.500Z,20.41
2023-06-25T05:12:28.604Z,20.48
2023-06-25T05:14:56.644Z,20.58
2023-06-25T05:17:24.671Z,20.58
2023-06-25T05:19:52.955Z,20.60
2023-06-25T05:22:21.699Z,20.61
2023-06-25T05:24:50.139Z,20.70
2023-06-25T05:27:18.714Z,20.77
2023-06-25T05:29:47.368Z,20.86
2023-06-25T05:32:17.879Z,20.89
2023-06-25T05:34:46.155Z,21.04
2023-06-25T05:37:14.475Z,21.16
2023-06-25T05:39:42.621Z,21.19
2023-06-25T05:42:12.298Z,21.35
2023-06-25T05:44:42.154Z,21.51
2023-06-25T05:47:11.329Z,21.66
2023-06-25T05:49:39.633Z,21.84
2023-06-25T05:52:08.158Z,21.92
2023-06-25T05:54:36.488Z,22.02
2023-06-25T05:57:05.499Z,22.22
2023-06-25T05:59:33.933Z,22.32
2023-06-25T06:02:02.659Z,22.41
2023-06-25T06:04:30.767Z,22.72
2023-06-25T06:06:59.416Z,23.03
2023-06-25T06:09:27.615Z,23.16
2023-06-25T06:11:56.800Z,23.27
2023-06-25T06:14:25.167Z,23.43
2023-06-25T06:16:53.709Z,23.50
2023-06-25T06:19:22.435Z,23.60
2023-06-25T06:21:50.538Z,23.72
2023-06-25T06:24:18.667Z,23.78
2023-06-25T06:26:46.792Z,23.82
2023-06-25T06:29:16.634Z,23.71
2023-06-25T06:31:44.656Z,23.87
2023-06-25T06:34:12.864Z,23.94
2023-06-25T06:36:41.156Z,24.00
2023-06-25T06:39:09.271Z,24.01
2023-06-25T06:41:37.442Z,24.04
2023-06-25T06:44:19.929Z,24.09
2023-06-25T06:46:48.368Z,23.96
2023-06-25T06:49:18.439Z,24.00
2023-06-25T06:51:50.203Z,24.02
2023-06-25T06:54:18.494Z,24.22
2023-06-25T06:56:46.535Z,24.44
2023-06-25T06:59:14.596Z,24.57
2023-06-25T07:01:44.840Z,24.57
2023-06-25T07:04:15.615Z,24.61
2023-06-25T07:06:45.539Z,24.49
2023-06-25T07:09:13.905Z,24.37
2023-06-25T07:11:41.928Z,24.39
2023-06-25T07:14:10.079Z,24.29
2023-06-25T07:16:38.996Z,24.20
2023-06-25T07:19:07.192Z,24.25
2023-06-25T07:21:36.282Z,24.18
2023-06-25T07:24:05.914Z,24.08
2023-06-25T07:26:34.247Z,24.01
2023-06-25T07:29:03.236Z,23.92
2023-06-25T07:31:31.383Z,23.96
2023-06-25T07:33:59.479Z,24.02
2023-06-25T07:36:27.516Z,24.02
2023-06-25T07:39:01.084Z,24.00
2023-06-25T07:41:29.420Z,23.94
2023-06-25T07:43:57.893Z,23.77
2023-06-25T07:46:28.359Z,23.92
2023-06-25T07:48:57.127Z,23.90
2023-06-25T07:51:25.512Z,23.65
2023-06-25T07:53:55.522Z,23.75
2023-06-25T07:56:23.494Z,23.56
2023-06-25T07:58:51.589Z,23.51
2023-06-25T08:01:19.680Z,23.49
2023-06-25T08:03:47.962Z,23.09
2023-06-25T08:06:16.971Z,22.91
2023-06-25T08:08:45.573Z,22.84
2023-06-25T08:11:13.582Z,22.62
2023-06-25T08:13:45.898Z,22.59
2023-06-25T08:16:24.071Z,22.39
2023-06-25T08:18:52.275Z,22.33
2023-06-25T08:21:20.434Z,22.33
2023-06-25T08:23:49.279Z,22.44
2023-06-25T08:26:20.697Z,22.32
2023-06-25T08:28:49.221Z,22.33
2023-06-25T08:31:18.450Z,22.21
2023-06-25T08:33:47.058Z,22.32
2023-06-25T08:36:17.166Z,22.34
2023-06-25T08:38:47.243Z,22.34
2023-06-25T08:41:16.060Z,22.30
2023-06-25T08:43:44.474Z,22.27
2023-06-25T08:46:13.319Z,22.21
2023-06-25T08:48:41.967Z,22.34
2023-06-25T08:51:17.457Z,22.39
2023-06-25T08:53:45.839Z,22.30
2023-06-25T08:56:19.216Z,22.07
2023-06-25T08:58:48.206Z,21.84
2023-06-25T09:01:16.932Z,21.81
2023-06-25T09:03:45.198Z,21.81
2023-06-25T09:06:17.510Z,21.55
2023-06-25T09:08:46.781Z,21.49
2023-06-25T09:11:14.919Z,21.30
2023-06-25T09:13:47.014Z,21.12
2023-06-25T09:16:15.066Z,21.17
2023-06-25T09:18:45.428Z,21.31
2023-06-25T09:21:13.455Z,21.25
2023-06-25T09:23:41.612Z,21.18
2023-06-25T09:26:14.425Z,21.17
2023-06-25T09:28:53.333Z,20.83
2023-06-25T09:31:21.574Z,20.60
2023-06-25T09:33:52.614Z,20.74
2023-06-25T09:36:37.573Z,20.66
2023-06-25T09:39:10.596Z,20.63
2023-06-25T09:41:42.539Z,20.51
2023-06-25T09:44:11.744Z,20.48
2023-06-25T09:46:42.122Z,20.48
2023-06-25T09:49:10.899Z,20.59
2023-06-25T09:51:56.386Z,20.61
2023-06-25T09:54:25.990Z,20.46
2023-06-25T09:56:57.423Z,20.38
2023-06-25T09:59:27.575Z,20.19
2023-06-25T10:01:56.041Z,20.17
2023-06-25T10:04:24.442Z,20.16
2023-06-25T10:06:53.785Z,20.11
2023-06-25T10:09:24.183Z,20.02
2023-06-25T10:11:53.757Z,19.88
2023-06-25T10:14:22.802Z,19.65
2023-06-25T10:16:56.324Z,19.54
2023-06-25T10:19:26.609Z,19.34
2023-06-25T10:22:12.188Z,19.25
2023-06-25T10:24:42.159Z,19.16
2023-06-25T10:27:28.106Z,19.10
2023-06-25T10:29:58.324Z,19.05
2023-06-25T10:32:31.069Z,19.01
2023-06-25T10:35:04.895Z,18.95
2023-06-25T10:37:34.856Z,18.89
2023-06-25T10:40:06.360Z,18.86
2023-06-25T10:42:37.972Z,18.87
2023-06-25T10:45:08.526Z,18.88
2023-06-25T10:47:36.977Z,18.91
2023-06-25T10:50:05.541Z,18.98
2023-06-25T10:52:33.910Z,19.03
2023-06-25T10:55:03.155Z,19.08
2023-06-25T10:57:33.372Z,19.12
2023-06-25T11:00:01.968Z,19.16
2023-06-25T11:02:30.745Z,19.27
2023-06-25T11:05:02.929Z,19.37
2023-06-25T11:07:31.706Z,19.46
2023-06-25T11:10:01.505Z,19.59
2023-06-25T11:12:30.905Z,19.65
2023-06-25T11:15:00.220Z,19.68
2023-06-25T11:17:29.147Z,19.69
2023-06-25T11:19:58.783Z,19.75
2023-06-25T11:22:30.440Z,19.76
2023-06-25T11:24:59.259Z,19.75
2023-06-25T11:27:29.175Z,19.78
2023-06-25T11:29:58.129Z,19.75
2023-06-25T11:32:31.246Z,19.73
2023-06-25T11:35:08.765Z,19.68
2023-06-25T11:37:50.803Z,19.65
2023-06-25T11:40:26.571Z,19.63
2023-06-25T11:42:55.415Z,19.68
2023-06-25T11:45:23.717Z,19.81
2023-06-25T11:47:58.434Z,19.93
2023-06-25T11:50:29.886Z,20.08
2023-06-25T11:52:58.079Z,20.19
2023-06-25T11:55:26.410Z,20.34
2023-06-25T11:57:54.911Z,20.57
2023-06-25T12:00:23.309Z,20.84
2023-06-25T12:02:54.547Z,21.16
2023-06-25T12:05:23.704Z,21.59
2023-06-25T12:07:52.154Z,22.09
2023-06-25T12:10:20.615Z,22.53
2023-06-25T12:12:49.920Z,22.59
2023-06-25T12:15:18.695Z,22.67
2023-06-25T12:17:47.276Z,22.81
2023-06-25T12:20:15.738Z,22.93
2023-06-25T12:22:44.147Z,22.88
2023-06-25T12:25:13.169Z,22.83
2023-06-25T12:27:41.505Z,22.79
2023-06-25T12:30:09.921Z,22.80
2023-06-25T12:32:38.860Z,22.79
2023-06-25T12:35:09.825Z,22.86
2023-06-25T12:37:40.156Z,22.91
2023-06-25T12:40:10.397Z,22.88
2023-06-25T12:42:38.995Z,22.98
2023-06-25T12:45:10.163Z,23.09
2023-06-25T12:47:39.302Z,23.23
2023-06-25T12:50:12.318Z,23.45
2023-06-25T12:52:41.131Z,23.55
2023-06-25T12:55:11.350Z,23.72
2023-06-25T12:57:39.781Z,23.79
2023-06-25T13:00:15.119Z,23.98
2023-06-25T13:02:49.155Z,24.40
2023-06-25T13:05:21.248Z,24.70
2023-06-25T13:07:49.457Z,24.98
2023-06-25T13:10:20.942Z,25.41
2023-06-25T13:12:54.017Z,25.94
2023-06-25T13:15:22.480Z,26.31
2023-06-25T13:17:50.563Z,26.64
2023-06-25T13:20:18.768Z,27.17
2023-06-25T13:22:46.877Z,27.70
2023-06-25T13:25:18.193Z,27.67
2023-06-25T13:27:47.293Z,28.27
2023-06-25T13:30:17.542Z,28.80
2023-06-25T13:32:45.800Z,29.08
2023-06-25T13:35:14.174Z,28.95
2023-06-25T13:37:42.260Z,29.14
2023-06-25T13:40:10.870Z,28.33
2023-06-25T13:42:39.945Z,29.03
2023-06-25T13:45:08.770Z,29.37
2023-06-25T13:47:38.498Z,29.91
2023-06-25T13:50:07.818Z,30.02
2023-06-25T13:52:36.359Z,30.02
2023-06-25T13:55:04.912Z,29.79
2023-06-25T13:57:33.036Z,29.15
2023-06-25T14:00:02.346Z,30.02
2023-06-25T14:02:40.052Z,29.95
2023-06-25T14:05:10.385Z,30.28
2023-06-25T14:07:39.096Z,30.92
2023-06-25T14:10:07.944Z,30.25
2023-06-25T14:12:36.117Z,30.04
2023-06-25T14:15:04.300Z,29.78
2023-06-25T14:17:32.474Z,29.74
2023-06-25T14:20:01.889Z,29.74
2023-06-25T14:22:30.041Z,28.83
2023-06-25T14:24:59.000Z,28.25
2023-06-25T14:27:27.735Z,27.55
2023-06-25T14:29:55.718Z,26.38
2023-06-25T14:32:24.217Z,25.73
2023-06-25T14:34:52.734Z,25.32
2023-06-25T14:37:21.050Z,24.71
2023-06-25T14:39:49.382Z,23.82
2023-06-25T14:42:17.580Z,23.06
2023-06-25T14:44:45.791Z,22.75
2023-06-25T14:47:14.566Z,22.27
2023-06-25T14:49:42.759Z,22.02
2023-06-25T14:52:13.474Z,21.85
2023-06-25T14:54:41.660Z,21.70
2023-06-25T14:57:11.574Z,21.50
2023-06-25T14:59:39.776Z,21.26
2023-06-25T15:02:07.972Z,21.17
2023-06-25T15:04:39.469Z,21.16
2023-06-25T15:07:08.090Z,21.11
2023-06-25T15:09:36.361Z,21.06
2023-06-25T15:12:04.944Z,21.07
2023-06-25T15:14:36.361Z,21.12
2023-06-25T15:17:05.604Z,21.06
2023-06-25T15:19:34.333Z,20.98
2023-06-25T15:22:02.734Z,20.96
2023-06-25T15:24:30.928Z,20.95
2023-06-25T15:26:59.205Z,20.95
2023-06-25T15:29:27.584Z,20.94
2023-06-25T15:31:57.349Z,20.96
2023-06-25T15:34:26.067Z,20.89
2023-06-25T15:36:54.574Z,20.85
2023-06-25T15:39:22.756Z,20.87
2023-06-25T15:41:50.909Z,20.82
2023-06-25T15:44:19.210Z,20.79
2023-06-25T15:46:48.189Z,20.73
2023-06-25T15:49:16.436Z,20.85
2023-06-25T15:51:45.275Z,21.32
2023-06-25T15:56:49.169Z,22.91
2023-06-25T15:59:17.278Z,23.21
2023-06-25T16:01:45.956Z,23.73
2023-06-25T16:04:14.049Z,23.91
2023-06-25T16:06:43.645Z,23.71
2023-06-25T16:09:12.041Z,23.62
2023-06-25T16:11:40.692Z,23.64
2023-06-25T16:14:08.936Z,23.44
2023-06-25T16:16:37.752Z,23.29
2023-06-25T16:19:26.615Z,23.28
2023-06-25T16:21:53.914Z,23.57
2023-06-25T16:24:22.397Z,24.00
2023-06-25T16:26:50.647Z,24.17
2023-06-25T16:29:21.351Z,23.49
2023-06-25T16:31:50.047Z,22.48
2023-06-25T16:34:18.084Z,21.67
2023-06-25T16:36:46.283Z,21.21
2023-06-25T16:39:14.469Z,20.90
2023-06-25T16:41:43.041Z,20.70
2023-06-25T16:44:11.341Z,20.47
2023-06-25T16:46:40.795Z,20.29
2023-06-25T16:49:09.437Z,20.16
2023-06-25T16:51:37.935Z,20.02
2023-06-25T16:54:06.351Z,19.87
2023-06-25T16:56:35.011Z,19.82
2023-06-25T16:59:05.715Z,19.82
2023-06-25T17:01:34.037Z,19.81
2023-06-25T17:04:05.545Z,19.77
2023-06-25T17:06:33.732Z,19.82
2023-06-25T17:09:02.340Z,19.87
2023-06-25T17:11:31.397Z,19.92
2023-06-25T17:13:59.667Z,19.98
2023-06-25T17:16:29.159Z,20.07
2023-06-25T17:18:58.632Z,20.07
2023-06-25T17:21:26.977Z,20.05
2023-06-25T17:23:55.084Z,20.03
2023-06-25T17:26:23.242Z,20.02
2023-06-25T17:28:51.244Z,20.12
2023-06-25T17:31:19.561Z,20.30
2023-06-25T17:33:47.792Z,20.47
2023-06-25T17:36:16.099Z,20.75
2023-06-25T17:38:44.208Z,20.73
2023-06-25T17:41:12.925Z,20.66
2023-06-25T17:43:41.376Z,20.57
2023-06-25T17:46:09.654Z,20.48
2023-06-25T17:48:37.760Z,20.40
2023-06-25T17:51:05.809Z,20.28
2023-06-25T17:53:38.813Z,20.23
2023-06-25T17:56:08.066Z,20.16
2023-06-25T17:58:36.544Z,20.08
2023-06-25T18:01:04.883Z,20.03
2023-06-25T18:03:33.620Z,19.96
2023-06-25T18:06:02.355Z,19.93
2023-06-25T18:08:30.487Z,19.86
2023-06-25T18:11:01.565Z,19.75
2023-06-25T18:13:29.872Z,19.72
2023-06-25T18:16:00.880Z,19.71
2023-06-25T18:18:31.422Z,19.69
2023-06-25T18:20:59.678Z,19.66
2023-06-25T18:23:27.830Z,19.60
2023-06-25T18:25:55.867Z,19.58
2023-06-25T18:28:23.857Z,19.55
2023-06-25T18:30:52.064Z,19.54
2023-06-25T18:33:20.498Z,19.51
2023-06-25T18:35:48.544Z,19.46
2023-06-25T18:38:16.746Z,19.42
2023-06-25T18:40:45.049Z,19.40
2023-06-25T18:43:13.163Z,19.39
2023-06-25T18:45:42.409Z,19.35
2023-06-25T18:48:10.483Z,19.31
2023-06-25T18:50:39.646Z,19.26
2023-06-25T18:53:08.441Z,19.19
2023-06-25T18:55:36.875Z,19.14
2023-06-25T18:58:05.508Z,19.08
2023-06-25T19:00:33.633Z,19.00
2023-06-25T19:03:02.154Z,18.91
2023-06-25T19:05:30.448Z,18.85
2023-06-25T19:07:58.967Z,18.79
2023-06-25T19:10:27.053Z,18.75
2023-06-25T19:12:55.081Z,18.76
2023-06-25T19:15:24.172Z,18.78
2023-06-25T19:17:53.359Z,18.80
2023-06-25T19:20:21.628Z,18.83
2023-06-25T19:23:09.137Z,18.85
2023-06-25T19:25:41.785Z,18.90
2023-06-25T19:28:09.805Z,18.92
2023-06-25T19:30:38.195Z,18.93
2023-06-25T19:33:07.927Z,18.93
2023-06-25T19:35:36.154Z,18.95
2023-06-25T19:38:04.757Z,18.95
2023-06-25T19:40:32.949Z,18.91
2023-06-25T19:43:01.121Z,18.92
2023-06-25T19:45:29.267Z,18.90
2023-06-25T19:47:59.595Z,18.88
2023-06-25T19:50:27.856Z,18.86
2023-06-25T19:52:56.585Z,18.86
2023-06-25T19:55:26.119Z,18.79
2023-06-25T19:57:54.495Z,18.74
2023-06-25T20:00:22.632Z,18.71
2023-06-25T20:02:50.871Z,18.67
2023-06-25T20:05:19.491Z,18.69
2023-06-25T20:07:49.665Z,18.70
2023-06-25T20:10:22.140Z,18.69
2023-06-25T20:12:50.825Z,18.64
2023-06-25T20:15:19.375Z,18.63
2023-06-25T20:17:47.428Z,18.58
2023-06-25T20:20:17.823Z,18.49
2023-06-25T20:22:48.021Z,18.46
2023-06-25T20:25:16.423Z,18.39
2023-06-25T20:27:44.454Z,18.34
2023-06-25T20:30:13.134Z,18.28
2023-06-25T20:32:42.500Z,18.22
2023-06-25T20:35:10.622Z,18.18
2023-06-25T20:37:38.696Z,18.14
2023-06-25T20:40:07.558Z,18.09
2023-06-25T20:42:35.663Z,18.04
2023-06-25T20:45:03.904Z,17.97
2023-06-25T20:47:32.069Z,17.91
2023-06-25T20:50:00.332Z,17.86
2023-06-25T20:52:28.512Z,17.82
2023-06-25T20:54:56.694Z,17.78
2023-06-25T20:57:25.518Z,17.77
2023-06-25T20:59:53.732Z,17.75
2023-06-25T21:02:21.990Z,17.75
2023-06-25T21:04:51.508Z,17.71
2023-06-25T21:07:19.751Z,17.71
2023-06-25T21:09:47.956Z,17.70
2023-06-25T21:12:16.086Z,17.68
2023-06-25T21:14:44.294Z,17.69
2023-06-25T21:17:12.448Z,17.68
2023-06-25T21:19:40.480Z,17.68
2023-06-25T21:22:08.504Z,17.68
2023-06-25T21:24:36.574Z,17.67
2023-06-25T21:27:05.978Z,17.66
2023-06-25T21:29:33.979Z,17.66
2023-06-25T21:32:03.806Z,17.64
2023-06-25T21:34:32.024Z,17.62
2023-06-25T21:37:00.137Z,17.60
2023-06-25T21:39:28.317Z,17.57
2023-06-25T21:41:56.284Z,17.54
2023-06-25T21:44:24.262Z,17.50
2023-06-25T21:46:52.318Z,17.46
2023-06-25T21:49:25.670Z,17.44
2023-06-25T21:52:01.005Z,17.42
2023-06-25T21:54:29.319Z,17.37
2023-06-25T21:56:57.424Z,17.36
2023-06-25T21:59:25.377Z,17.33
2023-06-25T22:01:53.425Z,17.31
2023-06-25T22:04:22.274Z,17.28
2023-06-25T22:06:54.719Z,17.25
2023-06-25T22:09:23.236Z,17.22
2023-06-25T22:11:52.713Z,17.18
2023-06-25T22:14:20.753Z,17.14
2023-06-25T22:16:49.091Z,17.10
2023-06-25T22:19:17.470Z,17.06
2023-06-25T22:21:45.543Z,17.01
2023-06-25T22:24:13.891Z,16.96
2023-06-25T22:26:42.270Z,16.93
2023-06-25T22:29:10.307Z,16.90
2023-06-25T22:31:38.555Z,16.89
2023-06-25T22:34:06.555Z,16.90
2023-06-25T22:36:35.361Z,16.93
2023-06-25T22:39:03.761Z,16.95
2023-06-25T22:41:32.350Z,16.98
2023-06-25T22:44:00.502Z,17.03
2023-06-25T22:46:28.674Z,17.03
2023-06-25T22:48:56.819Z,17.02
2023-06-25T22:51:30.801Z,16.97
2023-06-25T22:53:58.880Z,16.95
2023-06-25T22:56:27.497Z,16.90
2023-06-25T22:58:55.484Z,16.88
2023-06-25T23:01:24.006Z,16.86
2023-06-25T23:03:52.327Z,16.87
2023-06-25T23:06:20.709Z,16.87
2023-06-25T23:08:49.023Z,16.84
2023-06-25T23:11:17.161Z,16.78
2023-06-25T23:13:45.276Z,16.76
2023-06-25T23:16:13.316Z,16.75
2023-06-25T23:18:41.654Z,16.68
2023-06-25T23:21:13.190Z,16.63
2023-06-25T23:23:41.346Z,16.62
2023-06-25T23:26:09.701Z,16.61
2023-06-25T23:28:38.188Z,16.57
2023-06-25T23:31:07.348Z,16.53
2023-06-25T23:33:35.384Z,16.48
2023-06-25T23:36:04.113Z,16.46
2023-06-25T23:38:32.414Z,16.43
2023-06-25T23:41:00.324Z,16.41
2023-06-25T23:43:28.584Z,16.38
2023-06-25T23:45:56.813Z,16.35
2023-06-25T23:48:24.983Z,16.33
2023-06-25T23:50:58.677Z,16.32
2023-06-25T23:53:28.495Z,16.29
2023-06-25T23:55:56.468Z,16.28
2023-06-25T23:58:24.513Z,16.24
